<?xml version="1.0" encoding="UTF-8" standalone="no" ?>
<gpx xmlns="http://www.topografix.com/GPX/1/1" xmlns:xsi="http://www.w3.org/2001/XMLSchema-instance" xsi:schemaLocation="http://www.topografix.com/GPX/1/1 http://www.topografix.com/GPX/1/1/gpx.xsd" version="1.1" creator="VisuGPX - https://www.visugpx.com">
  <metadata>
    <name>De Mallièvre aux Epesses</name>
  </metadata>
  <trk>
    <name><![CDATA[Malliè1-16267804]]></name>
    <trkseg>
      <trkpt lat="46.90997" lon="-0.86727">
        <ele>127</ele>
        <time>2023-03-01T07:12:36Z</time>
      </trkpt>
      <trkpt lat="46.91048" lon="-0.86796">
        <ele>130</ele>
        <time>2023-03-01T07:14:09Z</time>
      </trkpt>
      <trkpt lat="46.9111" lon="-0.86918">
        <ele>131</ele>
        <time>2023-03-01T07:16:27Z</time>
      </trkpt>
      <trkpt lat="46.91157" lon="-0.87025">
        <ele>126</ele>
        <time>2023-03-01T07:18:23Z</time>
      </trkpt>
      <trkpt lat="46.91155" lon="-0.87096">
        <ele>126</ele>
        <time>2023-03-01T07:19:28Z</time>
      </trkpt>
      <trkpt lat="46.91152" lon="-0.87142">
        <ele>125</ele>
        <time>2023-03-01T07:20:10Z</time>
      </trkpt>
      <trkpt lat="46.91104" lon="-0.87168">
        <ele>126</ele>
        <time>2023-03-01T07:21:18Z</time>
      </trkpt>
      <trkpt lat="46.9105" lon="-0.87171">
        <ele>130</ele>
        <time>2023-03-01T07:22:31Z</time>
      </trkpt>
      <trkpt lat="46.91015" lon="-0.87211">
        <ele>133</ele>
        <time>2023-03-01T07:23:30Z</time>
      </trkpt>
      <trkpt lat="46.91048" lon="-0.87315">
        <ele>133</ele>
        <time>2023-03-01T07:25:14Z</time>
      </trkpt>
      <trkpt lat="46.91043" lon="-0.87341">
        <ele>134</ele>
        <time>2023-03-01T07:25:39Z</time>
      </trkpt>
      <trkpt lat="46.91039" lon="-0.87356">
        <ele>134</ele>
        <time>2023-03-01T07:25:54Z</time>
      </trkpt>
      <trkpt lat="46.91035" lon="-0.87373">
        <ele>135</ele>
        <time>2023-03-01T07:26:10Z</time>
      </trkpt>
      <trkpt lat="46.91023" lon="-0.874">
        <ele>136</ele>
        <time>2023-03-01T07:26:39Z</time>
      </trkpt>
      <trkpt lat="46.91002" lon="-0.87431">
        <ele>138</ele>
        <time>2023-03-01T07:27:19Z</time>
      </trkpt>
      <trkpt lat="46.90992" lon="-0.87439">
        <ele>138</ele>
        <time>2023-03-01T07:27:34Z</time>
      </trkpt>
      <trkpt lat="46.90963" lon="-0.87474">
        <ele>143</ele>
        <time>2023-03-01T07:28:25Z</time>
      </trkpt>
      <trkpt lat="46.90949" lon="-0.87479">
        <ele>145</ele>
        <time>2023-03-01T07:28:44Z</time>
      </trkpt>
      <trkpt lat="46.90924" lon="-0.8748">
        <ele>149</ele>
        <time>2023-03-01T07:29:17Z</time>
      </trkpt>
      <trkpt lat="46.90914" lon="-0.87486">
        <ele>151</ele>
        <time>2023-03-01T07:29:32Z</time>
      </trkpt>
      <trkpt lat="46.9091" lon="-0.87492">
        <ele>152</ele>
        <time>2023-03-01T07:29:39Z</time>
      </trkpt>
      <trkpt lat="46.90902" lon="-0.87497">
        <ele>153</ele>
        <time>2023-03-01T07:29:51Z</time>
      </trkpt>
      <trkpt lat="46.90893" lon="-0.87507">
        <ele>154</ele>
        <time>2023-03-01T07:30:06Z</time>
      </trkpt>
      <trkpt lat="46.9088" lon="-0.87513">
        <ele>155</ele>
        <time>2023-03-01T07:30:24Z</time>
      </trkpt>
      <trkpt lat="46.90865" lon="-0.87524">
        <ele>156</ele>
        <time>2023-03-01T07:30:47Z</time>
      </trkpt>
      <trkpt lat="46.90835" lon="-0.87549">
        <ele>159</ele>
        <time>2023-03-01T07:31:33Z</time>
      </trkpt>
      <trkpt lat="46.90804" lon="-0.87569">
        <ele>162</ele>
        <time>2023-03-01T07:32:18Z</time>
      </trkpt>
      <trkpt lat="46.9079" lon="-0.87581">
        <ele>164</ele>
        <time>2023-03-01T07:32:39Z</time>
      </trkpt>
      <trkpt lat="46.90764" lon="-0.87594">
        <ele>165</ele>
        <time>2023-03-01T07:33:16Z</time>
      </trkpt>
      <trkpt lat="46.90734" lon="-0.87614">
        <ele>167</ele>
        <time>2023-03-01T07:34:00Z</time>
      </trkpt>
      <trkpt lat="46.90724" lon="-0.87624">
        <ele>167</ele>
        <time>2023-03-01T07:34:16Z</time>
      </trkpt>
      <trkpt lat="46.90687" lon="-0.87666">
        <ele>170</ele>
        <time>2023-03-01T07:35:19Z</time>
      </trkpt>
      <trkpt lat="46.90671" lon="-0.87692">
        <ele>170</ele>
        <time>2023-03-01T07:35:51Z</time>
      </trkpt>
      <trkpt lat="46.90641" lon="-0.87729">
        <ele>171</ele>
        <time>2023-03-01T07:36:43Z</time>
      </trkpt>
      <trkpt lat="46.90616" lon="-0.87764">
        <ele>172</ele>
        <time>2023-03-01T07:37:29Z</time>
      </trkpt>
      <trkpt lat="46.90595" lon="-0.878">
        <ele>173</ele>
        <time>2023-03-01T07:38:12Z</time>
      </trkpt>
      <trkpt lat="46.90569" lon="-0.87846">
        <ele>172</ele>
        <time>2023-03-01T07:39:07Z</time>
      </trkpt>
      <trkpt lat="46.90556" lon="-0.87877">
        <ele>171</ele>
        <time>2023-03-01T07:39:40Z</time>
      </trkpt>
      <trkpt lat="46.90509" lon="-0.87951">
        <ele>170</ele>
        <time>2023-03-01T07:41:12Z</time>
      </trkpt>
      <trkpt lat="46.90495" lon="-0.87965">
        <ele>169</ele>
        <time>2023-03-01T07:41:35Z</time>
      </trkpt>
      <trkpt lat="46.90505" lon="-0.87969">
        <ele>169</ele>
        <time>2023-03-01T07:41:48Z</time>
      </trkpt>
      <trkpt lat="46.90495" lon="-0.87965">
        <ele>169</ele>
        <time>2023-03-01T07:42:02Z</time>
      </trkpt>
      <trkpt lat="46.90489" lon="-0.87971">
        <ele>169</ele>
        <time>2023-03-01T07:42:12Z</time>
      </trkpt>
      <trkpt lat="46.90471" lon="-0.87977">
        <ele>168</ele>
        <time>2023-03-01T07:42:37Z</time>
      </trkpt>
      <trkpt lat="46.90446" lon="-0.87997">
        <ele>167</ele>
        <time>2023-03-01T07:43:15Z</time>
      </trkpt>
      <trkpt lat="46.90387" lon="-0.88024">
        <ele>168</ele>
        <time>2023-03-01T07:44:37Z</time>
      </trkpt>
      <trkpt lat="46.90375" lon="-0.88041">
        <ele>168</ele>
        <time>2023-03-01T07:44:59Z</time>
      </trkpt>
      <trkpt lat="46.90363" lon="-0.88067">
        <ele>168</ele>
        <time>2023-03-01T07:45:28Z</time>
      </trkpt>
      <trkpt lat="46.90357" lon="-0.88097">
        <ele>167</ele>
        <time>2023-03-01T07:45:57Z</time>
      </trkpt>
      <trkpt lat="46.90351" lon="-0.88135">
        <ele>167</ele>
        <time>2023-03-01T07:46:32Z</time>
      </trkpt>
      <trkpt lat="46.90333" lon="-0.88195">
        <ele>169</ele>
        <time>2023-03-01T07:47:32Z</time>
      </trkpt>
      <trkpt lat="46.9033" lon="-0.88205">
        <ele>169</ele>
        <time>2023-03-01T07:47:42Z</time>
      </trkpt>
      <trkpt lat="46.90244" lon="-0.88336">
        <ele>173</ele>
        <time>2023-03-01T07:50:27Z</time>
      </trkpt>
      <trkpt lat="46.90207" lon="-0.88386">
        <ele>177</ele>
        <time>2023-03-01T07:51:35Z</time>
      </trkpt>
      <trkpt lat="46.90194" lon="-0.88404">
        <ele>178</ele>
        <time>2023-03-01T07:51:59Z</time>
      </trkpt>
      <trkpt lat="46.90165" lon="-0.88458">
        <ele>180</ele>
        <time>2023-03-01T07:53:01Z</time>
      </trkpt>
      <trkpt lat="46.90152" lon="-0.88473">
        <ele>180</ele>
        <time>2023-03-01T07:53:23Z</time>
      </trkpt>
      <trkpt lat="46.90127" lon="-0.88525">
        <ele>181</ele>
        <time>2023-03-01T07:54:21Z</time>
      </trkpt>
      <trkpt lat="46.90116" lon="-0.8856">
        <ele>181</ele>
        <time>2023-03-01T07:54:56Z</time>
      </trkpt>
      <trkpt lat="46.90105" lon="-0.88597">
        <ele>181</ele>
        <time>2023-03-01T07:55:33Z</time>
      </trkpt>
      <trkpt lat="46.90086" lon="-0.88645">
        <ele>181</ele>
        <time>2023-03-01T07:56:24Z</time>
      </trkpt>
      <trkpt lat="46.90044" lon="-0.88722">
        <ele>180</ele>
        <time>2023-03-01T07:57:54Z</time>
      </trkpt>
      <trkpt lat="46.9003" lon="-0.88748">
        <ele>180</ele>
        <time>2023-03-01T07:58:24Z</time>
      </trkpt>
      <trkpt lat="46.89985" lon="-0.88846">
        <ele>180</ele>
        <time>2023-03-01T08:00:11Z</time>
      </trkpt>
      <trkpt lat="46.8995" lon="-0.8891">
        <ele>178</ele>
        <time>2023-03-01T08:01:26Z</time>
      </trkpt>
      <trkpt lat="46.89926" lon="-0.88962">
        <ele>177</ele>
        <time>2023-03-01T08:02:23Z</time>
      </trkpt>
      <trkpt lat="46.89925" lon="-0.88973">
        <ele>177</ele>
        <time>2023-03-01T08:02:34Z</time>
      </trkpt>
      <trkpt lat="46.89924" lon="-0.88993">
        <ele>176</ele>
        <time>2023-03-01T08:02:52Z</time>
      </trkpt>
      <trkpt lat="46.89937" lon="-0.89016">
        <ele>177</ele>
        <time>2023-03-01T08:03:19Z</time>
      </trkpt>
      <trkpt lat="46.89947" lon="-0.89019">
        <ele>177</ele>
        <time>2023-03-01T08:03:33Z</time>
      </trkpt>
      <trkpt lat="46.89952" lon="-0.89021">
        <ele>178</ele>
        <time>2023-03-01T08:03:40Z</time>
      </trkpt>
      <trkpt lat="46.89945" lon="-0.8903">
        <ele>177</ele>
        <time>2023-03-01T08:03:52Z</time>
      </trkpt>
      <trkpt lat="46.8994" lon="-0.89052">
        <ele>177</ele>
        <time>2023-03-01T08:04:13Z</time>
      </trkpt>
      <trkpt lat="46.8994" lon="-0.89054">
        <ele>177</ele>
        <time>2023-03-01T08:04:15Z</time>
      </trkpt>
      <trkpt lat="46.89895" lon="-0.89087">
        <ele>178</ele>
        <time>2023-03-01T08:05:22Z</time>
      </trkpt>
      <trkpt lat="46.89811" lon="-0.8916">
        <ele>182</ele>
        <time>2023-03-01T08:07:32Z</time>
      </trkpt>
      <trkpt lat="46.89715" lon="-0.89256">
        <ele>186</ele>
        <time>2023-03-01T08:10:08Z</time>
      </trkpt>
      <trkpt lat="46.89676" lon="-0.89291">
        <ele>185</ele>
        <time>2023-03-01T08:11:09Z</time>
      </trkpt>
      <trkpt lat="46.89666" lon="-0.89301">
        <ele>184</ele>
        <time>2023-03-01T08:11:25Z</time>
      </trkpt>
      <trkpt lat="46.89545" lon="-0.8938">
        <ele>179</ele>
        <time>2023-03-01T08:14:22Z</time>
      </trkpt>
      <trkpt lat="46.89493" lon="-0.89448">
        <ele>178</ele>
        <time>2023-03-01T08:15:55Z</time>
      </trkpt>
      <trkpt lat="46.89491" lon="-0.8945">
        <ele>178</ele>
        <time>2023-03-01T08:15:58Z</time>
      </trkpt>
      <trkpt lat="46.89424" lon="-0.89371">
        <ele>176</ele>
        <time>2023-03-01T08:17:53Z</time>
      </trkpt>
      <trkpt lat="46.8939" lon="-0.89348">
        <ele>176</ele>
        <time>2023-03-01T08:18:43Z</time>
      </trkpt>
      <trkpt lat="46.89366" lon="-0.89318">
        <ele>177</ele>
        <time>2023-03-01T08:19:25Z</time>
      </trkpt>
      <trkpt lat="46.89363" lon="-0.89278">
        <ele>177</ele>
        <time>2023-03-01T08:20:02Z</time>
      </trkpt>
      <trkpt lat="46.89359" lon="-0.89276">
        <ele>177</ele>
        <time>2023-03-01T08:20:07Z</time>
      </trkpt>
      <trkpt lat="46.89237" lon="-0.89221">
        <ele>181</ele>
        <time>2023-03-01T08:22:58Z</time>
      </trkpt>
      <trkpt lat="46.89236" lon="-0.89226">
        <ele>181</ele>
        <time>2023-03-01T08:23:02Z</time>
      </trkpt>
      <trkpt lat="46.89221" lon="-0.89336">
        <ele>180</ele>
        <time>2023-03-01T08:24:45Z</time>
      </trkpt>
      <trkpt lat="46.89227" lon="-0.89374">
        <ele>180</ele>
        <time>2023-03-01T08:25:20Z</time>
      </trkpt>
      <trkpt lat="46.89229" lon="-0.89384">
        <ele>180</ele>
        <time>2023-03-01T08:25:30Z</time>
      </trkpt>
      <trkpt lat="46.89204" lon="-0.89398">
        <ele>180</ele>
        <time>2023-03-01T08:26:05Z</time>
      </trkpt>
      <trkpt lat="46.89094" lon="-0.89436">
        <ele>183</ele>
        <time>2023-03-01T08:28:36Z</time>
      </trkpt>
      <trkpt lat="46.89093" lon="-0.89441">
        <ele>183</ele>
        <time>2023-03-01T08:28:41Z</time>
      </trkpt>
      <trkpt lat="46.89091" lon="-0.89454">
        <ele>183</ele>
        <time>2023-03-01T08:28:53Z</time>
      </trkpt>
      <trkpt lat="46.89105" lon="-0.89584">
        <ele>182</ele>
        <time>2023-03-01T08:30:53Z</time>
      </trkpt>
      <trkpt lat="46.89107" lon="-0.89587">
        <ele>182</ele>
        <time>2023-03-01T08:30:57Z</time>
      </trkpt>
      <trkpt lat="46.89122" lon="-0.89601">
        <ele>182</ele>
        <time>2023-03-01T08:31:21Z</time>
      </trkpt>
      <trkpt lat="46.89177" lon="-0.89712">
        <ele>182</ele>
        <time>2023-03-01T08:33:26Z</time>
      </trkpt>
      <trkpt lat="46.89203" lon="-0.89747">
        <ele>182</ele>
        <time>2023-03-01T08:34:13Z</time>
      </trkpt>
      <trkpt lat="46.89207" lon="-0.89759">
        <ele>182</ele>
        <time>2023-03-01T08:34:25Z</time>
      </trkpt>
      <trkpt lat="46.89211" lon="-0.89772">
        <ele>182</ele>
        <time>2023-03-01T08:34:38Z</time>
      </trkpt>
      <trkpt lat="46.89207" lon="-0.89796">
        <ele>182</ele>
        <time>2023-03-01T08:35:01Z</time>
      </trkpt>
      <trkpt lat="46.89195" lon="-0.89816">
        <ele>182</ele>
        <time>2023-03-01T08:35:25Z</time>
      </trkpt>
      <trkpt lat="46.89141" lon="-0.89913">
        <ele>182</ele>
        <time>2023-03-01T08:37:19Z</time>
      </trkpt>
      <trkpt lat="46.89132" lon="-0.89924">
        <ele>182</ele>
        <time>2023-03-01T08:37:35Z</time>
      </trkpt>
      <trkpt lat="46.8908" lon="-0.89986">
        <ele>180</ele>
        <time>2023-03-01T08:39:04Z</time>
      </trkpt>
      <trkpt lat="46.89058" lon="-0.90016">
        <ele>181</ele>
        <time>2023-03-01T08:39:44Z</time>
      </trkpt>
      <trkpt lat="46.89029" lon="-0.90081">
        <ele>183</ele>
        <time>2023-03-01T08:40:55Z</time>
      </trkpt>
      <trkpt lat="46.89003" lon="-0.90174">
        <ele>184</ele>
        <time>2023-03-01T08:42:27Z</time>
      </trkpt>
      <trkpt lat="46.88961" lon="-0.90219">
        <ele>187</ele>
        <time>2023-03-01T08:43:36Z</time>
      </trkpt>
      <trkpt lat="46.88934" lon="-0.90196">
        <ele>189</ele>
        <time>2023-03-01T08:44:18Z</time>
      </trkpt>
      <trkpt lat="46.88961" lon="-0.90097">
        <ele>190</ele>
        <time>2023-03-01T08:45:55Z</time>
      </trkpt>
      <trkpt lat="46.8896" lon="-0.90031">
        <ele>189</ele>
        <time>2023-03-01T08:46:55Z</time>
      </trkpt>
      <trkpt lat="46.88969" lon="-0.89972">
        <ele>186</ele>
        <time>2023-03-01T08:47:50Z</time>
      </trkpt>
      <trkpt lat="46.88958" lon="-0.89847">
        <ele>186</ele>
        <time>2023-03-01T08:49:45Z</time>
      </trkpt>
      <trkpt lat="46.88971" lon="-0.89786">
        <ele>186</ele>
        <time>2023-03-01T08:50:44Z</time>
      </trkpt>
      <trkpt lat="46.88977" lon="-0.89735">
        <ele>185</ele>
        <time>2023-03-01T08:51:31Z</time>
      </trkpt>
      <trkpt lat="46.89015" lon="-0.89671">
        <ele>184</ele>
        <time>2023-03-01T08:52:48Z</time>
      </trkpt>
      <trkpt lat="46.89033" lon="-0.89616">
        <ele>184</ele>
        <time>2023-03-01T08:53:44Z</time>
      </trkpt>
      <trkpt lat="46.89038" lon="-0.89576">
        <ele>185</ele>
        <time>2023-03-01T08:54:21Z</time>
      </trkpt>
      <trkpt lat="46.88975" lon="-0.89536">
        <ele>186</ele>
        <time>2023-03-01T08:55:52Z</time>
      </trkpt>
      <trkpt lat="46.88951" lon="-0.89451">
        <ele>186</ele>
        <time>2023-03-01T08:57:16Z</time>
      </trkpt>
      <trkpt lat="46.88909" lon="-0.89347">
        <ele>186</ele>
        <time>2023-03-01T08:59:07Z</time>
      </trkpt>
      <trkpt lat="46.88911" lon="-0.8927">
        <ele>186</ele>
        <time>2023-03-01T09:00:17Z</time>
      </trkpt>
      <trkpt lat="46.88922" lon="-0.89209">
        <ele>187</ele>
        <time>2023-03-01T09:01:14Z</time>
      </trkpt>
      <trkpt lat="46.88922" lon="-0.89108">
        <ele>188</ele>
        <time>2023-03-01T09:02:46Z</time>
      </trkpt>
      <trkpt lat="46.88955" lon="-0.89006">
        <ele>188</ele>
        <time>2023-03-01T09:04:29Z</time>
      </trkpt>
      <trkpt lat="46.8898" lon="-0.88887">
        <ele>187</ele>
        <time>2023-03-01T09:06:23Z</time>
      </trkpt>
      <trkpt lat="46.89042" lon="-0.88746">
        <ele>184</ele>
        <time>2023-03-01T09:08:56Z</time>
      </trkpt>
      <trkpt lat="46.89115" lon="-0.88607">
        <ele>182</ele>
        <time>2023-03-01T09:11:36Z</time>
      </trkpt>
      <trkpt lat="46.8916" lon="-0.88536">
        <ele>181</ele>
        <time>2023-03-01T09:13:04Z</time>
      </trkpt>
      <trkpt lat="46.89191" lon="-0.8848">
        <ele>181</ele>
        <time>2023-03-01T09:14:10Z</time>
      </trkpt>
      <trkpt lat="46.89217" lon="-0.88405">
        <ele>182</ele>
        <time>2023-03-01T09:15:26Z</time>
      </trkpt>
      <trkpt lat="46.89249" lon="-0.88291">
        <ele>186</ele>
        <time>2023-03-01T09:17:19Z</time>
      </trkpt>
      <trkpt lat="46.89284" lon="-0.88147">
        <ele>186</ele>
        <time>2023-03-01T09:19:38Z</time>
      </trkpt>
      <trkpt lat="46.89302" lon="-0.88065">
        <ele>187</ele>
        <time>2023-03-01T09:20:57Z</time>
      </trkpt>
      <trkpt lat="46.89319" lon="-0.87982">
        <ele>187</ele>
        <time>2023-03-01T09:22:16Z</time>
      </trkpt>
      <trkpt lat="46.89366" lon="-0.87876">
        <ele>187</ele>
        <time>2023-03-01T09:24:11Z</time>
      </trkpt>
      <trkpt lat="46.89415" lon="-0.87801">
        <ele>188</ele>
        <time>2023-03-01T09:25:46Z</time>
      </trkpt>
      <trkpt lat="46.89477" lon="-0.87738">
        <ele>189</ele>
        <time>2023-03-01T09:27:26Z</time>
      </trkpt>
      <trkpt lat="46.89557" lon="-0.8769">
        <ele>191</ele>
        <time>2023-03-01T09:29:22Z</time>
      </trkpt>
      <trkpt lat="46.89648" lon="-0.87626">
        <ele>194</ele>
        <time>2023-03-01T09:31:36Z</time>
      </trkpt>
      <trkpt lat="46.89737" lon="-0.8761">
        <ele>193</ele>
        <time>2023-03-01T09:33:36Z</time>
      </trkpt>
      <trkpt lat="46.89819" lon="-0.8761">
        <ele>191</ele>
        <time>2023-03-01T09:35:25Z</time>
      </trkpt>
      <trkpt lat="46.89894" lon="-0.87575">
        <ele>187</ele>
        <time>2023-03-01T09:37:11Z</time>
      </trkpt>
      <trkpt lat="46.90045" lon="-0.87485">
        <ele>181</ele>
        <time>2023-03-01T09:40:48Z</time>
      </trkpt>
      <trkpt lat="46.90105" lon="-0.87405">
        <ele>181</ele>
        <time>2023-03-01T09:42:36Z</time>
      </trkpt>
      <trkpt lat="46.90137" lon="-0.87333">
        <ele>180</ele>
        <time>2023-03-01T09:43:55Z</time>
      </trkpt>
      <trkpt lat="46.90188" lon="-0.87277">
        <ele>179</ele>
        <time>2023-03-01T09:45:20Z</time>
      </trkpt>
      <trkpt lat="46.90239" lon="-0.87182">
        <ele>177</ele>
        <time>2023-03-01T09:47:10Z</time>
      </trkpt>
      <trkpt lat="46.90348" lon="-0.87067">
        <ele>177</ele>
        <time>2023-03-01T09:50:09Z</time>
      </trkpt>
      <trkpt lat="46.90445" lon="-0.87001">
        <ele>176</ele>
        <time>2023-03-01T09:52:32Z</time>
      </trkpt>
      <trkpt lat="46.90581" lon="-0.86918">
        <ele>173</ele>
        <time>2023-03-01T09:55:49Z</time>
      </trkpt>
      <trkpt lat="46.90687" lon="-0.86873">
        <ele>167</ele>
        <time>2023-03-01T09:58:16Z</time>
      </trkpt>
      <trkpt lat="46.90783" lon="-0.86849">
        <ele>157</ele>
        <time>2023-03-01T10:00:26Z</time>
      </trkpt>
      <trkpt lat="46.90863" lon="-0.86804">
        <ele>147</ele>
        <time>2023-03-01T10:02:20Z</time>
      </trkpt>
      <trkpt lat="46.90903" lon="-0.86764">
        <ele>140</ele>
        <time>2023-03-01T10:03:25Z</time>
      </trkpt>
      <trkpt lat="46.90965" lon="-0.86756">
        <ele>133</ele>
        <time>2023-03-01T10:04:48Z</time>
      </trkpt>
      <trkpt lat="46.90997" lon="-0.86727">
        <ele>127</ele>
        <time>2023-03-01T10:05:38Z</time>
      </trkpt>
    </trkseg>
  </trk>
</gpx>